sensor_id;sensor_type;location;lat;lon;timestamp;P1;durP1;ratioP1;P2;durP2;ratioP2
19113;SDS011;9689;51.052;13.772;2022-07-12T00:03:18;3.58;;;1.90;;
19113;SDS011;9689;51.052;13.772;2022-07-12T00:08:21;4.53;;;1.55;;
19113;SDS011;9689;51.052;13.772;2022-07-12T00:13:21;4.32;;;1.83;;
19113;SDS011;9689;51.052;13.772;2022-07-12T00:18:22;4.75;;;1.95;;
19113;SDS011;9689;51.052;13.772;2022-07-12T00:23:25;5.82;;;1.80;;
19113;SDS011;9689;51.052;13.772;2022-07-12T00:28:26;4.28;;;1.80;;
19113;SDS011;9689;51.052;13.772;2022-07-12T00:33:26;3.15;;;1.63;;
19113;SDS011;9689;51.052;13.772;2022-07-12T00:38:29;2.25;;;1.48;;
19113;SDS011;9689;51.052;13.772;2022-07-12T00:43:29;3.53;;;1.50;;
19113;SDS011;9689;51.052;13.772;2022-07-12T00:48:30;3.30;;;1.20;;
19113;SDS011;9689;51.052;13.772;2022-07-12T00:53:33;3.75;;;1.48;;
19113;SDS011;9689;51.052;13.772;2022-07-12T00:58:36;4.15;;;1.65;;
19113;SDS011;9689;51.052;13.772;2022-07-12T01:03:36;1.77;;;1.48;;
19113;SDS011;9689;51.052;13.772;2022-07-12T01:08:39;2.80;;;1.42;;
19113;SDS011;9689;51.052;13.772;2022-07-12T01:13:40;4.80;;;1.67;;
19113;SDS011;9689;51.052;13.772;2022-07-12T01:18:41;1.67;;;1.10;;
19113;SDS011;9689;51.052;13.772;2022-07-12T01:23:45;2.45;;;1.50;;
19113;SDS011;9689;51.052;13.772;2022-07-12T01:28:47;2.85;;;1.85;;
19113;SDS011;9689;51.052;13.772;2022-07-12T01:33:48;2.80;;;1.58;;
19113;SDS011;9689;51.052;13.772;2022-07-12T01:38:51;4.82;;;1.30;;
19113;SDS011;9689;51.052;13.772;2022-07-12T01:43:52;2.33;;;1.20;;
19113;SDS011;9689;51.052;13.772;2022-07-12T01:48:53;6.50;;;1.55;;
19113;SDS011;9689;51.052;13.772;2022-07-12T01:53:55;3.33;;;1.65;;
19113;SDS011;9689;51.052;13.772;2022-07-12T01:58:56;4.72;;;1.80;;
19113;SDS011;9689;51.052;13.772;2022-07-12T02:04:00;3.47;;;1.90;;
19113;SDS011;9689;51.052;13.772;2022-07-12T02:09:03;5.88;;;1.50;;
19113;SDS011;9689;51.052;13.772;2022-07-12T02:14:04;3.38;;;1.63;;
19113;SDS011;9689;51.052;13.772;2022-07-12T02:19:05;2.78;;;1.77;;
19113;SDS011;9689;51.052;13.772;2022-07-12T02:24:07;3.15;;;1.63;;
19113;SDS011;9689;51.052;13.772;2022-07-12T02:29:08;2.88;;;1.70;;
19113;SDS011;9689;51.052;13.772;2022-07-12T02:34:10;5.53;;;1.85;;
19113;SDS011;9689;51.052;13.772;2022-07-12T02:39:12;2.88;;;1.85;;
19113;SDS011;9689;51.052;13.772;2022-07-12T02:44:13;1.15;;;1.05;;
19113;SDS011;9689;51.052;13.772;2022-07-12T02:49:13;3.00;;;1.60;;
19113;SDS011;9689;51.052;13.772;2022-07-12T02:54:15;4.13;;;1.73;;
19113;SDS011;9689;51.052;13.772;2022-07-12T02:59:16;5.93;;;1.77;;
19113;SDS011;9689;51.052;13.772;2022-07-12T03:04:17;3.70;;;1.73;;
19113;SDS011;9689;51.052;13.772;2022-07-12T03:09:19;3.30;;;2.25;;
19113;SDS011;9689;51.052;13.772;2022-07-12T03:14:20;4.75;;;1.75;;
19113;SDS011;9689;51.052;13.772;2022-07-12T03:19:20;2.38;;;1.33;;
19113;SDS011;9689;51.052;13.772;2022-07-12T03:24:22;1.80;;;1.23;;
19113;SDS011;9689;51.052;13.772;2022-07-12T03:29:23;2.65;;;1.50;;
19113;SDS011;9689;51.052;13.772;2022-07-12T03:34:24;6.45;;;2.22;;
19113;SDS011;9689;51.052;13.772;2022-07-12T03:39:26;5.10;;;1.50;;
19113;SDS011;9689;51.052;13.772;2022-07-12T03:44:33;3.55;;;1.40;;
19113;SDS011;9689;51.052;13.772;2022-07-12T03:49:34;4.85;;;1.80;;
19113;SDS011;9689;51.052;13.772;2022-07-12T03:54:36;3.30;;;1.63;;
19113;SDS011;9689;51.052;13.772;2022-07-12T03:59:36;2.22;;;1.52;;
19113;SDS011;9689;51.052;13.772;2022-07-12T04:04:40;3.72;;;1.73;;
19113;SDS011;9689;51.052;13.772;2022-07-12T04:09:43;2.17;;;1.40;;
19113;SDS011;9689;51.052;13.772;2022-07-12T04:14:43;4.13;;;1.50;;
19113;SDS011;9689;51.052;13.772;2022-07-12T04:19:44;2.78;;;1.35;;
19113;SDS011;9689;51.052;13.772;2022-07-12T04:24:46;4.97;;;1.85;;
19113;SDS011;9689;51.052;13.772;2022-07-12T04:29:47;4.22;;;1.63;;
19113;SDS011;9689;51.052;13.772;2022-07-12T04:34:48;5.03;;;1.55;;
19113;SDS011;9689;51.052;13.772;2022-07-12T04:39:50;4.43;;;1.67;;
19113;SDS011;9689;51.052;13.772;2022-07-12T04:44:50;5.65;;;1.73;;
19113;SDS011;9689;51.052;13.772;2022-07-12T04:49:51;10.90;;;2.10;;
19113;SDS011;9689;51.052;13.772;2022-07-12T04:54:53;7.07;;;1.80;;
19113;SDS011;9689;51.052;13.772;2022-07-12T04:59:54;8.90;;;1.80;;
19113;SDS011;9689;51.052;13.772;2022-07-12T05:04:55;6.18;;;2.10;;
19113;SDS011;9689;51.052;13.772;2022-07-12T05:09:57;3.67;;;1.95;;
19113;SDS011;9689;51.052;13.772;2022-07-12T05:14:57;4.05;;;2.20;;
19113;SDS011;9689;51.052;13.772;2022-07-12T05:19:58;3.42;;;2.42;;
19113;SDS011;9689;51.052;13.772;2022-07-12T05:25:00;4.22;;;1.98;;
19113;SDS011;9689;51.052;13.772;2022-07-12T05:30:01;9.93;;;2.08;;
19113;SDS011;9689;51.052;13.772;2022-07-12T05:35:02;5.30;;;3.00;;
19113;SDS011;9689;51.052;13.772;2022-07-12T05:40:06;5.95;;;2.75;;
19113;SDS011;9689;51.052;13.772;2022-07-12T05:45:07;5.28;;;2.60;;
19113;SDS011;9689;51.052;13.772;2022-07-12T05:50:09;6.05;;;2.60;;
19113;SDS011;9689;51.052;13.772;2022-07-12T05:55:11;5.45;;;3.65;;
19113;SDS011;9689;51.052;13.772;2022-07-12T06:00:12;6.20;;;3.75;;
19113;SDS011;9689;51.052;13.772;2022-07-12T06:05:14;5.75;;;3.95;;
19113;SDS011;9689;51.052;13.772;2022-07-12T06:10:17;5.63;;;4.05;;
19113;SDS011;9689;51.052;13.772;2022-07-12T06:15:17;8.27;;;4.07;;
19113;SDS011;9689;51.052;13.772;2022-07-12T06:20:18;10.82;;;4.40;;
19113;SDS011;9689;51.052;13.772;2022-07-12T06:25:20;6.15;;;4.15;;
19113;SDS011;9689;51.052;13.772;2022-07-12T06:30:42;5.03;;;3.78;;
19113;SDS011;9689;51.052;13.772;2022-07-12T06:35:43;7.10;;;4.50;;
19113;SDS011;9689;51.052;13.772;2022-07-12T06:40:45;5.85;;;3.92;;
19113;SDS011;9689;51.052;13.772;2022-07-12T06:45:46;5.10;;;3.38;;
19113;SDS011;9689;51.052;13.772;2022-07-12T06:50:46;9.20;;;4.35;;
19113;SDS011;9689;51.052;13.772;2022-07-12T06:55:49;7.45;;;3.17;;
19113;SDS011;9689;51.052;13.772;2022-07-12T07:00:49;8.43;;;3.97;;
19113;SDS011;9689;51.052;13.772;2022-07-12T07:05:50;9.20;;;5.03;;
19113;SDS011;9689;51.052;13.772;2022-07-12T07:10:52;6.57;;;4.45;;
19113;SDS011;9689;51.052;13.772;2022-07-12T07:15:53;8.77;;;4.68;;
19113;SDS011;9689;51.052;13.772;2022-07-12T07:20:54;5.47;;;3.72;;
19113;SDS011;9689;51.052;13.772;2022-07-12T07:25:57;4.75;;;3.63;;
19113;SDS011;9689;51.052;13.772;2022-07-12T07:30:57;5.45;;;3.30;;
19113;SDS011;9689;51.052;13.772;2022-07-12T07:36:00;11.55;;;3.47;;
19113;SDS011;9689;51.052;13.772;2022-07-12T07:41:02;5.95;;;2.80;;
19113;SDS011;9689;51.052;13.772;2022-07-12T07:46:03;5.95;;;3.40;;
19113;SDS011;9689;51.052;13.772;2022-07-12T07:51:04;5.50;;;3.28;;
19113;SDS011;9689;51.052;13.772;2022-07-12T07:56:06;3.53;;;2.35;;
19113;SDS011;9689;51.052;13.772;2022-07-12T08:01:07;6.05;;;2.45;;
19113;SDS011;9689;51.052;13.772;2022-07-12T08:06:08;2.78;;;2.30;;
19113;SDS011;9689;51.052;13.772;2022-07-12T08:11:10;8.25;;;2.50;;
19113;SDS011;9689;51.052;13.772;2022-07-12T08:16:11;4.28;;;2.40;;
19113;SDS011;9689;51.052;13.772;2022-07-12T08:21:12;3.20;;;1.90;;
19113;SDS011;9689;51.052;13.772;2022-07-12T08:26:14;6.40;;;2.40;;
19113;SDS011;9689;51.052;13.772;2022-07-12T08:31:15;4.35;;;1.80;;
19113;SDS011;9689;51.052;13.772;2022-07-12T08:36:16;8.32;;;2.33;;
19113;SDS011;9689;51.052;13.772;2022-07-12T08:41:18;4.60;;;1.63;;
19113;SDS011;9689;51.052;13.772;2022-07-12T08:46:18;2.72;;;1.50;;
19113;SDS011;9689;51.052;13.772;2022-07-12T08:51:20;6.60;;;1.30;;
19113;SDS011;9689;51.052;13.772;2022-07-12T08:56:30;7.47;;;1.58;;
19113;SDS011;9689;51.052;13.772;2022-07-12T09:01:38;4.50;;;1.20;;
19113;SDS011;9689;51.052;13.772;2022-07-12T09:06:40;4.47;;;1.40;;
19113;SDS011;9689;51.052;13.772;2022-07-12T09:11:43;3.78;;;1.38;;
19113;SDS011;9689;51.052;13.772;2022-07-12T09:16:57;7.43;;;1.38;;
19113;SDS011;9689;51.052;13.772;2022-07-12T09:21:59;4.32;;;1.30;;
19113;SDS011;9689;51.052;13.772;2022-07-12T09:27:02;2.38;;;0.80;;
19113;SDS011;9689;51.052;13.772;2022-07-12T09:32:06;1.73;;;0.80;;
19113;SDS011;9689;51.052;13.772;2022-07-12T09:37:25;2.80;;;0.70;;
19113;SDS011;9689;51.052;13.772;2022-07-12T09:42:28;4.95;;;0.95;;
19113;SDS011;9689;51.052;13.772;2022-07-12T09:47:29;3.33;;;0.70;;
19113;SDS011;9689;51.052;13.772;2022-07-12T09:52:30;3.65;;;0.70;;
19113;SDS011;9689;51.052;13.772;2022-07-12T09:57:39;3.85;;;0.60;;
19113;SDS011;9689;51.052;13.772;2022-07-12T10:02:40;0.98;;;0.47;;
19113;SDS011;9689;51.052;13.772;2022-07-12T10:07:42;1.65;;;0.57;;
19113;SDS011;9689;51.052;13.772;2022-07-12T10:12:46;4.38;;;0.70;;
19113;SDS011;9689;51.052;13.772;2022-07-12T10:17:51;4.00;;;0.68;;
19113;SDS011;9689;51.052;13.772;2022-07-12T10:22:55;1.80;;;0.68;;
19113;SDS011;9689;51.052;13.772;2022-07-12T10:28:17;3.92;;;0.50;;
19113;SDS011;9689;51.052;13.772;2022-07-12T10:33:19;0.68;;;0.45;;
19113;SDS011;9689;51.052;13.772;2022-07-12T10:38:21;1.40;;;0.50;;
19113;SDS011;9689;51.052;13.772;2022-07-12T10:43:26;0.82;;;0.50;;
19113;SDS011;9689;51.052;13.772;2022-07-12T10:48:47;2.80;;;0.50;;
19113;SDS011;9689;51.052;13.772;2022-07-12T10:53:48;5.55;;;0.55;;
19113;SDS011;9689;51.052;13.772;2022-07-12T10:58:52;2.58;;;0.68;;
19113;SDS011;9689;51.052;13.772;2022-07-12T11:03:53;0.68;;;0.40;;
19113;SDS011;9689;51.052;13.772;2022-07-12T11:08:56;1.98;;;0.30;;
19113;SDS011;9689;51.052;13.772;2022-07-12T11:14:00;0.80;;;0.43;;
19113;SDS011;9689;51.052;13.772;2022-07-12T11:19:02;0.60;;;0.47;;
19113;SDS011;9689;51.052;13.772;2022-07-12T11:24:15;1.80;;;0.45;;
19113;SDS011;9689;51.052;13.772;2022-07-12T11:29:18;2.70;;;0.50;;
19113;SDS011;9689;51.052;13.772;2022-07-12T11:34:19;0.80;;;0.50;;
19113;SDS011;9689;51.052;13.772;2022-07-12T11:39:31;3.42;;;0.50;;
19113;SDS011;9689;51.052;13.772;2022-07-12T11:44:44;0.50;;;0.32;;
19113;SDS011;9689;51.052;13.772;2022-07-12T11:49:46;0.52;;;0.35;;
19113;SDS011;9689;51.052;13.772;2022-07-12T11:54:48;1.80;;;0.50;;
19113;SDS011;9689;51.052;13.772;2022-07-12T11:59:51;5.40;;;0.40;;
19113;SDS011;9689;51.052;13.772;2022-07-12T12:04:52;1.48;;;0.45;;
19113;SDS011;9689;51.052;13.772;2022-07-12T12:09:58;3.33;;;0.45;;
19113;SDS011;9689;51.052;13.772;2022-07-12T12:15:02;2.70;;;0.45;;
19113;SDS011;9689;51.052;13.772;2022-07-12T12:20:10;1.02;;;0.40;;
19113;SDS011;9689;51.052;13.772;2022-07-12T12:25:13;3.35;;;0.47;;
19113;SDS011;9689;51.052;13.772;2022-07-12T12:30:16;1.75;;;0.50;;
19113;SDS011;9689;51.052;13.772;2022-07-12T12:35:18;1.35;;;0.43;;
19113;SDS011;9689;51.052;13.772;2022-07-12T12:40:23;0.80;;;0.32;;
19113;SDS011;9689;51.052;13.772;2022-07-12T12:45:27;1.50;;;0.52;;
19113;SDS011;9689;51.052;13.772;2022-07-12T12:50:37;2.92;;;0.32;;
19113;SDS011;9689;51.052;13.772;2022-07-12T12:55:40;2.28;;;0.50;;
19113;SDS011;9689;51.052;13.772;2022-07-12T13:00:43;0.63;;;0.40;;
19113;SDS011;9689;51.052;13.772;2022-07-12T13:05:45;2.83;;;0.60;;
19113;SDS011;9689;51.052;13.772;2022-07-12T13:10:46;1.05;;;0.43;;
19113;SDS011;9689;51.052;13.772;2022-07-12T13:16:09;2.75;;;0.57;;
19113;SDS011;9689;51.052;13.772;2022-07-12T13:21:10;2.72;;;0.38;;
19113;SDS011;9689;51.052;13.772;2022-07-12T13:26:11;2.42;;;0.40;;
19113;SDS011;9689;51.052;13.772;2022-07-12T13:31:13;1.45;;;0.60;;
19113;SDS011;9689;51.052;13.772;2022-07-12T13:36:14;2.15;;;0.55;;
19113;SDS011;9689;51.052;13.772;2022-07-12T13:41:15;2.17;;;0.65;;
19113;SDS011;9689;51.052;13.772;2022-07-12T13:46:17;1.10;;;0.60;;
19113;SDS011;9689;51.052;13.772;2022-07-12T13:51:18;0.80;;;0.40;;
19113;SDS011;9689;51.052;13.772;2022-07-12T13:56:29;1.48;;;0.73;;
19113;SDS011;9689;51.052;13.772;2022-07-12T14:01:35;0.68;;;0.50;;
19113;SDS011;9689;51.052;13.772;2022-07-12T14:06:36;0.88;;;0.50;;
19113;SDS011;9689;51.052;13.772;2022-07-12T14:11:37;1.55;;;0.73;;
19113;SDS011;9689;51.052;13.772;2022-07-12T14:16:39;0.70;;;0.50;;
19113;SDS011;9689;51.052;13.772;2022-07-12T14:21:40;0.75;;;0.55;;
19113;SDS011;9689;51.052;13.772;2022-07-12T14:26:41;1.85;;;0.43;;
19113;SDS011;9689;51.052;13.772;2022-07-12T14:31:43;2.25;;;0.70;;
19113;SDS011;9689;51.052;13.772;2022-07-12T14:36:43;1.40;;;0.47;;
19113;SDS011;9689;51.052;13.772;2022-07-12T14:41:44;3.15;;;0.60;;
19113;SDS011;9689;51.052;13.772;2022-07-12T14:46:47;2.80;;;1.00;;
19113;SDS011;9689;51.052;13.772;2022-07-12T14:51:48;7.38;;;0.60;;
19113;SDS011;9689;51.052;13.772;2022-07-12T14:56:49;2.90;;;0.45;;
19113;SDS011;9689;51.052;13.772;2022-07-12T15:01:53;0.63;;;0.63;;
19113;SDS011;9689;51.052;13.772;2022-07-12T15:06:54;1.05;;;0.50;;
19113;SDS011;9689;51.052;13.772;2022-07-12T15:11:55;0.90;;;0.50;;
19113;SDS011;9689;51.052;13.772;2022-07-12T15:16:57;3.83;;;0.57;;
19113;SDS011;9689;51.052;13.772;2022-07-12T15:21:58;1.45;;;0.68;;
19113;SDS011;9689;51.052;13.772;2022-07-12T15:26:58;2.00;;;0.47;;
19113;SDS011;9689;51.052;13.772;2022-07-12T15:32:00;2.58;;;0.57;;
19113;SDS011;9689;51.052;13.772;2022-07-12T15:37:01;1.38;;;0.52;;
19113;SDS011;9689;51.052;13.772;2022-07-12T15:42:02;2.50;;;0.60;;
19113;SDS011;9689;51.052;13.772;2022-07-12T15:47:04;3.33;;;0.55;;
19113;SDS011;9689;51.052;13.772;2022-07-12T15:52:06;0.60;;;0.50;;
19113;SDS011;9689;51.052;13.772;2022-07-12T15:57:24;1.85;;;0.60;;
19113;SDS011;9689;51.052;13.772;2022-07-12T16:02:26;2.38;;;0.40;;
19113;SDS011;9689;51.052;13.772;2022-07-12T16:07:29;0.75;;;0.40;;
19113;SDS011;9689;51.052;13.772;2022-07-12T16:12:30;1.75;;;0.57;;
19113;SDS011;9689;51.052;13.772;2022-07-12T16:17:32;3.65;;;0.63;;
19113;SDS011;9689;51.052;13.772;2022-07-12T16:22:33;1.63;;;0.47;;
19113;SDS011;9689;51.052;13.772;2022-07-12T16:27:34;2.35;;;1.00;;
19113;SDS011;9689;51.052;13.772;2022-07-12T16:32:36;2.28;;;0.70;;
19113;SDS011;9689;51.052;13.772;2022-07-12T16:37:37;1.17;;;0.70;;
19113;SDS011;9689;51.052;13.772;2022-07-12T16:42:39;0.65;;;0.40;;
19113;SDS011;9689;51.052;13.772;2022-07-12T16:47:42;0.90;;;0.60;;
19113;SDS011;9689;51.052;13.772;2022-07-12T16:52:43;0.98;;;0.40;;
19113;SDS011;9689;51.052;13.772;2022-07-12T16:57:44;1.17;;;0.60;;
19113;SDS011;9689;51.052;13.772;2022-07-12T17:02:46;1.75;;;0.70;;
19113;SDS011;9689;51.052;13.772;2022-07-12T17:07:49;1.27;;;0.55;;
19113;SDS011;9689;51.052;13.772;2022-07-12T17:12:50;0.77;;;0.55;;
19113;SDS011;9689;51.052;13.772;2022-07-12T17:17:52;3.13;;;0.60;;
19113;SDS011;9689;51.052;13.772;2022-07-12T17:22:53;1.88;;;0.50;;
19113;SDS011;9689;51.052;13.772;2022-07-12T17:27:55;0.68;;;0.50;;
19113;SDS011;9689;51.052;13.772;2022-07-12T17:32:58;1.88;;;0.55;;
19113;SDS011;9689;51.052;13.772;2022-07-12T17:38:00;1.55;;;0.60;;
19113;SDS011;9689;51.052;13.772;2022-07-12T17:43:00;1.35;;;0.60;;
19113;SDS011;9689;51.052;13.772;2022-07-12T17:48:03;0.90;;;0.40;;
19113;SDS011;9689;51.052;13.772;2022-07-12T17:53:04;3.70;;;0.70;;
19113;SDS011;9689;51.052;13.772;2022-07-12T17:58:04;2.47;;;0.90;;
19113;SDS011;9689;51.052;13.772;2022-07-12T18:03:24;2.22;;;0.77;;
19113;SDS011;9689;51.052;13.772;2022-07-12T18:08:25;5.78;;;1.13;;
19113;SDS011;9689;51.052;13.772;2022-07-12T18:13:26;2.25;;;0.80;;
19113;SDS011;9689;51.052;13.772;2022-07-12T18:18:46;1.00;;;0.80;;
19113;SDS011;9689;51.052;13.772;2022-07-12T18:23:47;1.67;;;0.70;;
19113;SDS011;9689;51.052;13.772;2022-07-12T18:28:48;2.50;;;0.80;;
19113;SDS011;9689;51.052;13.772;2022-07-12T18:33:50;3.42;;;0.77;;
19113;SDS011;9689;51.052;13.772;2022-07-12T18:38:51;3.33;;;0.77;;
19113;SDS011;9689;51.052;13.772;2022-07-12T18:43:53;4.95;;;1.05;;
19113;SDS011;9689;51.052;13.772;2022-07-12T18:48:55;1.83;;;0.90;;
19113;SDS011;9689;51.052;13.772;2022-07-12T18:53:56;1.80;;;1.15;;
19113;SDS011;9689;51.052;13.772;2022-07-12T18:58:57;1.90;;;0.90;;
19113;SDS011;9689;51.052;13.772;2022-07-12T19:03:59;1.48;;;0.80;;
19113;SDS011;9689;51.052;13.772;2022-07-12T19:09:00;2.45;;;1.02;;
19113;SDS011;9689;51.052;13.772;2022-07-12T19:14:01;1.52;;;0.60;;
19113;SDS011;9689;51.052;13.772;2022-07-12T19:19:04;7.05;;;1.05;;
19113;SDS011;9689;51.052;13.772;2022-07-12T19:24:05;3.13;;;0.77;;
19113;SDS011;9689;51.052;13.772;2022-07-12T19:29:06;1.90;;;0.90;;
19113;SDS011;9689;51.052;13.772;2022-07-12T19:34:09;1.58;;;0.80;;
19113;SDS011;9689;51.052;13.772;2022-07-12T19:39:10;4.70;;;1.25;;
19113;SDS011;9689;51.052;13.772;2022-07-12T19:44:11;2.03;;;1.23;;
19113;SDS011;9689;51.052;13.772;2022-07-12T19:49:13;2.05;;;0.85;;
19113;SDS011;9689;51.052;13.772;2022-07-12T19:54:14;5.95;;;1.15;;
19113;SDS011;9689;51.052;13.772;2022-07-12T19:59:15;2.15;;;1.02;;
19113;SDS011;9689;51.052;13.772;2022-07-12T20:04:17;2.65;;;0.90;;
19113;SDS011;9689;51.052;13.772;2022-07-12T20:09:18;2.08;;;1.42;;
19113;SDS011;9689;51.052;13.772;2022-07-12T20:14:19;5.05;;;1.25;;
19113;SDS011;9689;51.052;13.772;2022-07-12T20:19:21;4.45;;;1.55;;
19113;SDS011;9689;51.052;13.772;2022-07-12T20:24:26;2.35;;;1.40;;
19113;SDS011;9689;51.052;13.772;2022-07-12T20:29:27;2.38;;;1.15;;
19113;SDS011;9689;51.052;13.772;2022-07-12T20:34:29;4.80;;;1.27;;
19113;SDS011;9689;51.052;13.772;2022-07-12T20:39:31;1.58;;;1.25;;
19113;SDS011;9689;51.052;13.772;2022-07-12T20:44:33;4.97;;;1.52;;
19113;SDS011;9689;51.052;13.772;2022-07-12T20:49:35;3.17;;;1.30;;
19113;SDS011;9689;51.052;13.772;2022-07-12T20:54:36;5.13;;;1.58;;
19113;SDS011;9689;51.052;13.772;2022-07-12T20:59:37;5.15;;;1.75;;
19113;SDS011;9689;51.052;13.772;2022-07-12T21:04:40;3.20;;;1.60;;
19113;SDS011;9689;51.052;13.772;2022-07-12T21:09:45;4.75;;;1.92;;
19113;SDS011;9689;51.052;13.772;2022-07-12T21:14:46;6.60;;;1.80;;
19113;SDS011;9689;51.052;13.772;2022-07-12T21:19:48;5.70;;;2.35;;
19113;SDS011;9689;51.052;13.772;2022-07-12T21:24:49;3.05;;;2.20;;
19113;SDS011;9689;51.052;13.772;2022-07-12T21:29:49;5.35;;;2.42;;
19113;SDS011;9689;51.052;13.772;2022-07-12T21:34:52;3.05;;;1.90;;
19113;SDS011;9689;51.052;13.772;2022-07-12T21:39:54;3.38;;;1.70;;
19113;SDS011;9689;51.052;13.772;2022-07-12T21:44:55;4.68;;;1.90;;
19113;SDS011;9689;51.052;13.772;2022-07-12T21:49:57;4.43;;;1.92;;
19113;SDS011;9689;51.052;13.772;2022-07-12T21:54:58;3.88;;;1.90;;
19113;SDS011;9689;51.052;13.772;2022-07-12T21:59:59;6.70;;;1.98;;
19113;SDS011;9689;51.052;13.772;2022-07-12T22:05:01;3.45;;;2.20;;
19113;SDS011;9689;51.052;13.772;2022-07-12T22:10:02;3.67;;;1.83;;
19113;SDS011;9689;51.052;13.772;2022-07-12T22:15:03;4.43;;;1.98;;
19113;SDS011;9689;51.052;13.772;2022-07-12T22:20:06;4.30;;;1.83;;
19113;SDS011;9689;51.052;13.772;2022-07-12T22:25:08;5.28;;;1.60;;
19113;SDS011;9689;51.052;13.772;2022-07-12T22:30:09;5.45;;;1.88;;
19113;SDS011;9689;51.052;13.772;2022-07-12T22:35:12;3.90;;;1.60;;
19113;SDS011;9689;51.052;13.772;2022-07-12T22:40:12;5.55;;;1.67;;
19113;SDS011;9689;51.052;13.772;2022-07-12T22:45:13;2.40;;;1.33;;
19113;SDS011;9689;51.052;13.772;2022-07-12T22:50:15;7.05;;;2.42;;
19113;SDS011;9689;51.052;13.772;2022-07-12T22:55:36;3.20;;;1.40;;
19113;SDS011;9689;51.052;13.772;2022-07-12T23:00:38;3.08;;;1.90;;
19113;SDS011;9689;51.052;13.772;2022-07-12T23:05:40;4.70;;;1.50;;
19113;SDS011;9689;51.052;13.772;2022-07-12T23:10:40;3.38;;;1.83;;
19113;SDS011;9689;51.052;13.772;2022-07-12T23:15:41;2.63;;;1.50;;
19113;SDS011;9689;51.052;13.772;2022-07-12T23:20:44;2.28;;;1.60;;
19113;SDS011;9689;51.052;13.772;2022-07-12T23:25:44;6.30;;;2.05;;
19113;SDS011;9689;51.052;13.772;2022-07-12T23:30:45;4.75;;;1.48;;
19113;SDS011;9689;51.052;13.772;2022-07-12T23:35:47;3.28;;;1.75;;
19113;SDS011;9689;51.052;13.772;2022-07-12T23:40:48;4.43;;;1.60;;
19113;SDS011;9689;51.052;13.772;2022-07-12T23:45:49;6.35;;;1.80;;
19113;SDS011;9689;51.052;13.772;2022-07-12T23:50:51;3.25;;;1.52;;
19113;SDS011;9689;51.052;13.772;2022-07-12T23:55:52;4.72;;;2.10;;
